createdAt,value
2022-10-17T00:01:14.447Z,16.10
2022-10-17T00:03:43.220Z,16.12
2022-10-17T00:06:13.034Z,16.14
2022-10-17T00:08:45.246Z,16.07
2022-10-17T00:11:18.365Z,16.13
2022-10-17T00:13:46.804Z,16.10
2022-10-17T00:16:15.582Z,16.06
2022-10-17T00:18:43.872Z,15.97
2022-10-17T00:21:17.473Z,15.98
2022-10-17T00:23:45.615Z,15.96
2022-10-17T00:26:15.917Z,15.94
2022-10-17T00:28:44.315Z,15.92
2022-10-17T00:31:13.057Z,15.92
2022-10-17T00:33:41.524Z,15.87
2022-10-17T00:36:12.827Z,15.87
2022-10-17T00:38:42.372Z,15.84
2022-10-17T00:41:12.667Z,15.83
2022-10-17T00:43:57.830Z,15.80
2022-10-17T00:46:28.628Z,15.78
2022-10-17T00:48:58.602Z,15.80
2022-10-17T00:51:32.266Z,15.77
2022-10-17T00:54:02.163Z,15.80
2022-10-17T00:56:31.937Z,15.72
2022-10-17T00:59:02.327Z,15.75
2022-10-17T01:01:30.673Z,15.76
2022-10-17T01:03:59.802Z,15.69
2022-10-17T01:06:28.644Z,15.67
2022-10-17T01:08:57.481Z,15.68
2022-10-17T01:11:36.675Z,15.73
2022-10-17T01:14:10.328Z,15.72
2022-10-17T01:16:49.109Z,15.71
2022-10-17T01:19:45.803Z,15.75
2022-10-17T01:22:22.898Z,15.68
2022-10-17T01:25:05.555Z,15.72
2022-10-17T01:27:39.101Z,15.65
2022-10-17T01:30:42.618Z,15.73
2022-10-17T01:33:14.626Z,15.73
2022-10-17T01:35:49.529Z,15.74
2022-10-17T01:38:24.839Z,15.81
2022-10-17T01:41:02.205Z,15.82
2022-10-17T01:43:36.278Z,15.83
2022-10-17T01:46:14.691Z,15.81
2022-10-17T01:48:47.309Z,15.86
2022-10-17T01:51:20.558Z,15.89
2022-10-17T01:53:56.194Z,15.88
2022-10-17T01:56:28.117Z,15.89
2022-10-17T01:59:02.410Z,15.91
2022-10-17T02:01:36.114Z,15.88
2022-10-17T02:04:06.859Z,15.83
2022-10-17T02:06:36.495Z,15.84
2022-10-17T02:09:18.541Z,15.80
2022-10-17T02:11:57.078Z,15.80
2022-10-17T02:14:37.617Z,15.81
2022-10-17T02:17:15.221Z,15.79
2022-10-17T02:19:56.454Z,15.78
2022-10-17T02:22:36.277Z,15.75
2022-10-17T02:25:12.183Z,15.78
2022-10-17T02:27:49.453Z,15.80
2022-10-17T02:30:28.198Z,15.82
2022-10-17T02:33:02.009Z,15.84
2022-10-17T02:35:34.350Z,15.86
2022-10-17T02:38:07.248Z,15.90
2022-10-17T02:40:37.441Z,15.93
2022-10-17T02:43:06.182Z,15.92
2022-10-17T02:45:39.106Z,15.92
2022-10-17T02:48:13.827Z,15.94
2022-10-17T02:50:50.132Z,15.93
2022-10-17T02:53:27.730Z,15.93
2022-10-17T02:56:00.294Z,15.91
2022-10-17T02:58:34.006Z,15.88
2022-10-17T03:01:03.568Z,15.88
2022-10-17T03:03:34.247Z,15.86
2022-10-17T03:06:03.756Z,15.81
2022-10-17T03:08:31.986Z,15.81
2022-10-17T03:11:01.570Z,15.80
2022-10-17T03:13:33.019Z,15.79
2022-10-17T03:16:03.424Z,15.76
2022-10-17T03:18:33.082Z,15.76
2022-10-17T03:21:03.076Z,15.74
2022-10-17T03:23:31.400Z,15.72
2022-10-17T03:26:05.466Z,15.72
2022-10-17T03:28:35.812Z,15.71
2022-10-17T03:31:08.959Z,15.71
2022-10-17T03:33:39.620Z,15.71
2022-10-17T03:36:10.371Z,15.71
2022-10-17T03:38:39.938Z,15.73
2022-10-17T03:41:10.102Z,15.73
2022-10-17T03:43:39.947Z,15.71
2022-10-17T03:46:09.552Z,15.72
2022-10-17T03:48:40.049Z,15.70
2022-10-17T03:51:10.892Z,15.66
2022-10-17T03:53:47.451Z,15.66
2022-10-17T03:56:17.592Z,15.64
2022-10-17T03:58:49.415Z,15.61
2022-10-17T04:01:19.751Z,15.58
2022-10-17T04:03:52.009Z,15.57
2022-10-17T04:06:21.346Z,15.54
2022-10-17T04:08:51.062Z,15.55
2022-10-17T04:11:26.291Z,15.58
2022-10-17T04:13:59.782Z,15.54
2022-10-17T04:16:29.612Z,15.55
2022-10-17T04:19:05.658Z,15.57
2022-10-17T04:21:40.824Z,15.56
2022-10-17T04:24:12.169Z,15.57
2022-10-17T04:26:58.873Z,15.59
2022-10-17T04:29:30.241Z,15.59
2022-10-17T04:32:06.873Z,15.58
2022-10-17T04:34:43.506Z,15.61
2022-10-17T04:37:12.355Z,15.58
2022-10-17T04:39:40.575Z,15.63
2022-10-17T04:42:09.598Z,15.62
2022-10-17T04:44:38.367Z,15.64
2022-10-17T04:47:06.651Z,15.65
2022-10-17T04:49:34.910Z,15.65
2022-10-17T04:52:12.625Z,15.67
2022-10-17T04:54:44.080Z,15.69
2022-10-17T04:57:14.610Z,15.68
2022-10-17T04:59:48.322Z,15.67
2022-10-17T05:02:29.492Z,15.67
2022-10-17T05:04:58.506Z,15.68
2022-10-17T05:07:28.399Z,15.64
2022-10-17T05:10:01.990Z,15.65
2022-10-17T05:12:31.463Z,15.67
2022-10-17T05:15:00.432Z,15.66
2022-10-17T05:17:30.258Z,15.65
2022-10-17T05:19:58.558Z,15.65
2022-10-17T05:22:28.880Z,15.67
2022-10-17T05:24:58.540Z,15.67
2022-10-17T05:27:27.003Z,15.68
2022-10-17T05:29:55.961Z,15.68
2022-10-17T05:32:30.964Z,15.66
2022-10-17T05:34:59.688Z,15.66
2022-10-17T05:37:30.831Z,15.65
2022-10-17T05:39:59.292Z,15.64
2022-10-17T05:42:27.927Z,15.63
2022-10-17T05:44:58.540Z,15.63
2022-10-17T05:47:28.223Z,15.63
2022-10-17T05:49:58.096Z,15.66
2022-10-17T05:52:37.244Z,15.65
2022-10-17T05:55:12.364Z,15.67
2022-10-17T05:57:41.149Z,15.70
2022-10-17T06:00:15.291Z,15.67
2022-10-17T06:02:46.449Z,15.66
2022-10-17T06:05:16.801Z,15.66
2022-10-17T06:07:46.815Z,15.66
2022-10-17T06:10:16.682Z,15.66
2022-10-17T06:12:45.054Z,15.65
2022-10-17T06:15:13.870Z,15.64
2022-10-17T06:17:46.132Z,15.61
2022-10-17T06:20:15.283Z,15.62
2022-10-17T06:22:43.337Z,15.61
2022-10-17T06:25:18.641Z,15.61
2022-10-17T06:27:47.025Z,15.62
2022-10-17T06:30:15.255Z,15.64
2022-10-17T06:32:43.408Z,15.63
2022-10-17T06:35:12.161Z,15.64
2022-10-17T06:37:41.606Z,15.63
2022-10-17T06:40:12.381Z,15.62
2022-10-17T06:42:42.818Z,15.61
2022-10-17T06:45:39.376Z,15.60
2022-10-17T06:48:18.430Z,15.62
2022-10-17T06:51:07.615Z,15.63
2022-10-17T06:53:45.935Z,15.65
2022-10-17T06:56:32.853Z,15.65
2022-10-17T06:59:29.952Z,15.66
2022-10-17T07:02:06.807Z,15.64
2022-10-17T07:04:35.221Z,15.65
2022-10-17T07:07:03.525Z,15.61
2022-10-17T07:09:34.135Z,15.59
2022-10-17T07:12:02.308Z,15.57
2022-10-17T07:14:32.960Z,15.54
2022-10-17T07:17:01.711Z,15.49
2022-10-17T07:19:32.657Z,15.48
2022-10-17T07:22:00.850Z,15.46
2022-10-17T07:24:29.357Z,15.49
2022-10-17T07:27:17.041Z,15.51
2022-10-17T07:29:46.652Z,15.54
2022-10-17T07:32:32.584Z,15.54
2022-10-17T07:35:00.892Z,15.56
2022-10-17T07:37:29.167Z,15.57
2022-10-17T07:39:58.065Z,15.58
2022-10-17T07:42:28.557Z,15.61
2022-10-17T07:44:58.753Z,15.68
2022-10-17T07:47:31.529Z,15.74
2022-10-17T07:50:00.947Z,15.80
2022-10-17T07:52:29.211Z,15.86
2022-10-17T07:54:57.648Z,15.92
2022-10-17T07:57:26.345Z,16.07
2022-10-17T07:59:55.293Z,16.23
2022-10-17T08:02:26.653Z,16.35
2022-10-17T08:04:55.517Z,16.36
2022-10-17T08:07:28.345Z,16.42
2022-10-17T08:09:57.574Z,16.49
2022-10-17T08:12:26.055Z,16.57
2022-10-17T08:14:54.968Z,16.66
2022-10-17T08:17:24.786Z,16.71
2022-10-17T08:19:52.890Z,16.77
2022-10-17T08:22:21.104Z,16.79
2022-10-17T08:24:49.387Z,16.80
2022-10-17T08:27:24.015Z,16.77
2022-10-17T08:29:53.640Z,16.76
2022-10-17T08:32:23.701Z,16.80
2022-10-17T08:34:53.823Z,16.89
2022-10-17T08:37:22.238Z,17.00
2022-10-17T08:39:50.454Z,17.24
2022-10-17T08:42:36.912Z,17.46
2022-10-17T08:45:18.067Z,17.63
2022-10-17T08:47:48.789Z,17.88
2022-10-17T08:50:26.874Z,18.37
2022-10-17T08:53:00.675Z,18.89
2022-10-17T08:55:33.873Z,19.55
2022-10-17T08:58:02.877Z,19.86
2022-10-17T09:00:33.596Z,20.21
2022-10-17T09:03:20.693Z,20.53
2022-10-17T09:05:57.866Z,20.76
2022-10-17T09:08:40.203Z,21.31
2022-10-17T09:11:13.967Z,21.56
2022-10-17T09:13:56.818Z,21.39
2022-10-17T09:16:43.513Z,21.18
2022-10-17T09:19:18.206Z,20.92
2022-10-17T09:21:53.349Z,21.21
2022-10-17T09:24:26.924Z,21.90
2022-10-17T09:26:56.767Z,22.73
2022-10-17T09:29:31.012Z,23.33
2022-10-17T09:32:11.167Z,24.00
2022-10-17T09:34:39.681Z,24.80
2022-10-17T09:37:14.594Z,25.49
2022-10-17T09:39:44.085Z,25.87
2022-10-17T09:42:17.619Z,25.92
2022-10-17T09:44:52.439Z,25.41
2022-10-17T09:47:30.159Z,24.37
2022-10-17T09:49:58.761Z,24.09
2022-10-17T09:52:34.588Z,24.38
2022-10-17T09:55:06.314Z,24.57
2022-10-17T09:57:55.642Z,24.67
2022-10-17T10:00:26.319Z,24.60
2022-10-17T10:03:11.162Z,24.65
2022-10-17T10:05:39.318Z,24.40
2022-10-17T10:08:16.341Z,24.36
2022-10-17T10:10:45.286Z,23.84
2022-10-17T10:13:21.986Z,24.08
2022-10-17T10:15:51.755Z,23.87
2022-10-17T10:18:37.262Z,23.61
2022-10-17T10:21:09.633Z,23.17
2022-10-17T10:23:41.263Z,23.26
2022-10-17T10:26:22.321Z,23.97
2022-10-17T10:28:57.375Z,24.41
2022-10-17T10:31:38.073Z,24.30
2022-10-17T10:34:18.756Z,24.09
2022-10-17T10:36:52.124Z,24.02
2022-10-17T10:39:43.089Z,23.86
2022-10-17T10:42:22.416Z,23.43
2022-10-17T10:44:51.818Z,22.97
2022-10-17T10:47:24.725Z,22.81
2022-10-17T10:50:08.014Z,23.00
2022-10-17T10:52:42.902Z,23.12
2022-10-17T10:55:25.175Z,23.14
2022-10-17T10:57:56.619Z,23.18
2022-10-17T11:00:29.011Z,23.64
2022-10-17T11:03:10.600Z,23.29
2022-10-17T11:05:47.017Z,23.24
2022-10-17T11:08:24.008Z,23.18
2022-10-17T11:11:08.323Z,22.94
2022-10-17T11:13:44.059Z,22.84
2022-10-17T11:16:24.767Z,22.76
2022-10-17T11:18:58.604Z,22.34
2022-10-17T11:21:38.352Z,22.20
2022-10-17T11:24:16.296Z,22.00
2022-10-17T11:26:51.754Z,22.02
2022-10-17T11:29:20.294Z,21.96
2022-10-17T11:31:53.945Z,21.82
2022-10-17T11:34:26.437Z,21.72
2022-10-17T11:36:57.931Z,21.43
2022-10-17T11:39:34.550Z,21.37
2022-10-17T11:42:08.323Z,21.47
2022-10-17T11:44:38.326Z,21.61
2022-10-17T11:47:15.871Z,21.63
2022-10-17T11:49:51.650Z,21.65
2022-10-17T11:52:54.934Z,21.67
2022-10-17T11:55:23.363Z,21.63
2022-10-17T11:58:08.928Z,21.54
2022-10-17T12:00:49.880Z,21.46
2022-10-17T12:03:37.742Z,21.31
2022-10-17T12:06:14.445Z,21.11
2022-10-17T12:08:50.986Z,20.82
2022-10-17T12:11:35.142Z,20.89
2022-10-17T12:14:06.220Z,21.02
2022-10-17T12:16:46.839Z,20.73
2022-10-17T12:19:34.205Z,20.80
2022-10-17T12:22:08.356Z,20.59
2022-10-17T12:24:41.447Z,20.79
2022-10-17T12:27:52.281Z,21.10
2022-10-17T12:30:27.409Z,21.38
2022-10-17T12:33:08.436Z,21.23
2022-10-17T12:35:38.735Z,21.03
2022-10-17T12:38:28.243Z,20.69
2022-10-17T12:40:59.426Z,20.67
2022-10-17T12:43:52.825Z,20.84
2022-10-17T12:46:45.625Z,20.99
2022-10-17T12:49:42.627Z,20.86
2022-10-17T12:52:23.806Z,20.66
2022-10-17T12:55:17.044Z,20.57
2022-10-17T12:57:53.204Z,20.69
2022-10-17T13:00:25.160Z,20.78
2022-10-17T13:02:56.835Z,20.93
2022-10-17T13:05:29.801Z,20.92
2022-10-17T13:08:00.935Z,20.79
2022-10-17T13:10:31.842Z,20.81
2022-10-17T13:13:13.036Z,20.81
2022-10-17T13:15:41.197Z,20.84
2022-10-17T13:18:21.143Z,20.99
2022-10-17T13:21:01.623Z,21.00
2022-10-17T13:23:33.709Z,20.88
2022-10-17T13:26:07.563Z,20.87
2022-10-17T13:28:39.391Z,21.02
2022-10-17T13:31:08.363Z,20.88
2022-10-17T13:33:40.450Z,20.51
2022-10-17T13:36:10.165Z,20.36
2022-10-17T13:38:41.723Z,20.45
2022-10-17T13:44:08.778Z,20.35
2022-10-17T13:46:39.149Z,20.51
2022-10-17T13:49:17.947Z,20.42
2022-10-17T13:51:47.867Z,20.46
2022-10-17T13:54:21.950Z,20.40
2022-10-17T13:56:57.645Z,20.15
2022-10-17T13:59:29.119Z,19.93
2022-10-17T14:01:57.860Z,19.96
2022-10-17T14:04:27.444Z,20.04
2022-10-17T14:06:56.040Z,19.87
2022-10-17T14:09:26.875Z,19.79
2022-10-17T14:12:01.913Z,19.99
2022-10-17T14:14:41.639Z,20.28
2022-10-17T14:17:24.967Z,20.47
2022-10-17T14:20:16.151Z,20.70
2022-10-17T14:22:50.661Z,20.68
2022-10-17T14:25:35.524Z,20.61
2022-10-17T14:28:15.365Z,20.58
2022-10-17T14:31:01.913Z,20.58
2022-10-17T14:33:33.869Z,20.74
2022-10-17T14:36:05.614Z,20.98
2022-10-17T14:38:36.051Z,20.81
2022-10-17T14:41:37.755Z,20.57
2022-10-17T14:44:01.901Z,20.58
2022-10-17T14:46:30.610Z,20.53
2022-10-17T14:49:04.587Z,20.41
2022-10-17T14:51:44.754Z,20.13
2022-10-17T14:54:27.037Z,20.08
2022-10-17T14:56:56.154Z,20.21
2022-10-17T14:59:52.286Z,20.37
2022-10-17T15:02:15.031Z,20.52
2022-10-17T15:04:43.486Z,20.59
2022-10-17T15:07:15.338Z,20.45
2022-10-17T15:09:44.124Z,20.10
2022-10-17T15:12:16.653Z,19.97
2022-10-17T15:14:45.363Z,20.05
2022-10-17T15:17:15.919Z,19.95
2022-10-17T15:19:44.593Z,19.73
2022-10-17T15:22:16.327Z,19.92
2022-10-17T15:24:46.235Z,19.98
2022-10-17T15:27:18.843Z,20.01
2022-10-17T15:29:48.253Z,19.79
2022-10-17T15:32:16.940Z,19.78
2022-10-17T15:34:45.625Z,19.94
2022-10-17T15:37:22.422Z,20.14
2022-10-17T15:39:54.599Z,19.93
2022-10-17T15:42:24.357Z,19.78
2022-10-17T15:44:52.628Z,19.71
2022-10-17T15:47:26.094Z,19.81
2022-10-17T15:49:56.845Z,19.88
2022-10-17T15:52:27.830Z,19.72
2022-10-17T15:54:59.531Z,19.50
2022-10-17T15:57:33.136Z,19.56
2022-10-17T16:00:01.702Z,19.56
2022-10-17T16:02:30.077Z,19.58
2022-10-17T16:04:58.658Z,19.59
2022-10-17T16:07:28.794Z,19.72
2022-10-17T16:09:57.175Z,19.67
2022-10-17T16:12:31.208Z,19.44
2022-10-17T16:14:59.533Z,19.48
2022-10-17T16:17:27.807Z,19.50
2022-10-17T16:19:56.337Z,19.46
2022-10-17T16:22:32.433Z,19.47
2022-10-17T16:25:07.948Z,19.45
2022-10-17T16:27:36.681Z,19.40
2022-10-17T16:30:06.720Z,19.28
2022-10-17T16:32:35.550Z,19.18
2022-10-17T16:35:03.687Z,19.16
2022-10-17T16:37:33.189Z,19.16
2022-10-17T16:40:01.356Z,19.12
2022-10-17T16:42:29.805Z,19.04
2022-10-17T16:44:58.054Z,18.87
2022-10-17T16:47:26.237Z,18.87
2022-10-17T16:49:55.008Z,18.84
2022-10-17T16:52:23.799Z,18.70
2022-10-17T16:54:53.886Z,18.65
2022-10-17T16:57:22.570Z,18.50
2022-10-17T16:59:50.772Z,18.43
2022-10-17T17:02:21.237Z,18.40
2022-10-17T17:04:49.780Z,18.23
2022-10-17T17:07:19.822Z,18.18
2022-10-17T17:09:49.024Z,18.14
2022-10-17T17:12:19.882Z,18.10
2022-10-17T17:14:48.112Z,18.01
2022-10-17T17:17:30.248Z,17.98
2022-10-17T17:20:06.093Z,17.90
2022-10-17T17:22:34.504Z,17.86
2022-10-17T17:25:02.611Z,17.83
2022-10-17T17:27:33.986Z,17.80
2022-10-17T17:30:02.246Z,17.77
2022-10-17T17:32:33.498Z,17.78
2022-10-17T17:35:02.269Z,17.75
2022-10-17T17:37:30.616Z,17.69
2022-10-17T17:39:59.009Z,17.65
2022-10-17T17:42:27.262Z,17.58
2022-10-17T17:44:56.896Z,17.56
2022-10-17T17:47:25.361Z,17.52
2022-10-17T17:49:53.543Z,17.53
2022-10-17T17:52:21.799Z,17.58
2022-10-17T17:54:49.996Z,17.56
2022-10-17T17:57:18.264Z,17.58
2022-10-17T17:59:48.596Z,17.60
2022-10-17T18:02:19.294Z,17.58
2022-10-17T18:04:48.040Z,17.63
2022-10-17T18:07:16.269Z,17.51
2022-10-17T18:09:44.765Z,17.57
2022-10-17T18:12:13.005Z,17.49
2022-10-17T18:14:41.494Z,17.56
2022-10-17T18:17:09.991Z,17.51
2022-10-17T18:19:40.271Z,17.55
2022-10-17T18:22:09.565Z,17.58
2022-10-17T18:24:37.801Z,17.65
2022-10-17T18:27:06.657Z,17.68
2022-10-17T18:29:34.868Z,17.69
2022-10-17T18:32:03.133Z,17.74
2022-10-17T18:34:31.639Z,17.77
2022-10-17T18:37:02.614Z,17.77
2022-10-17T18:39:31.496Z,17.72
2022-10-17T18:42:00.121Z,17.66
2022-10-17T18:44:29.232Z,17.60
2022-10-17T18:47:02.938Z,17.58
2022-10-17T18:49:33.038Z,17.35
2022-10-17T18:52:02.860Z,17.34
2022-10-17T18:54:33.498Z,17.32
2022-10-17T18:57:02.282Z,17.36
2022-10-17T18:59:30.809Z,17.29
2022-10-17T19:02:00.428Z,17.36
2022-10-17T19:04:28.862Z,17.43
2022-10-17T19:06:57.039Z,17.36
2022-10-17T19:09:27.458Z,17.48
2022-10-17T19:11:56.618Z,17.42
2022-10-17T19:14:26.356Z,17.50
2022-10-17T19:16:54.754Z,17.47
2022-10-17T19:19:24.421Z,17.50
2022-10-17T19:21:53.375Z,17.50
2022-10-17T19:24:23.895Z,17.45
2022-10-17T19:26:55.919Z,17.47
2022-10-17T19:29:26.109Z,17.50
2022-10-17T19:34:24.346Z,17.56
2022-10-17T19:36:53.614Z,17.62
2022-10-17T19:39:23.455Z,17.70
2022-10-17T19:41:53.665Z,17.72
2022-10-17T19:44:22.152Z,17.70
2022-10-17T19:46:50.322Z,17.69
2022-10-17T19:49:18.684Z,17.69
2022-10-17T19:51:47.385Z,17.70
2022-10-17T19:54:18.313Z,17.75
2022-10-17T19:56:46.753Z,17.68
2022-10-17T19:59:17.573Z,17.72
2022-10-17T20:01:46.710Z,17.75
2022-10-17T20:04:15.581Z,17.80
2022-10-17T20:06:44.548Z,17.81
2022-10-17T20:09:16.834Z,17.82
2022-10-17T20:11:46.556Z,17.82
2022-10-17T20:14:16.145Z,17.84
2022-10-17T20:16:50.121Z,17.87
2022-10-17T20:19:18.311Z,17.89
2022-10-17T20:21:47.328Z,17.89
2022-10-17T20:24:18.832Z,17.89
2022-10-17T20:26:47.718Z,17.87
2022-10-17T20:29:19.676Z,17.90
2022-10-17T20:31:49.549Z,17.92
2022-10-17T20:34:19.443Z,17.95
2022-10-17T20:36:49.877Z,17.96
2022-10-17T20:39:19.924Z,17.99
2022-10-17T20:41:48.506Z,18.01
2022-10-17T20:44:18.682Z,18.01
2022-10-17T20:47:01.225Z,18.00
2022-10-17T20:49:31.759Z,17.97
2022-10-17T20:52:00.693Z,17.93
2022-10-17T20:54:29.782Z,17.86
2022-10-17T20:57:01.198Z,17.84
2022-10-17T20:59:36.178Z,17.79
2022-10-17T21:02:04.921Z,17.78
2022-10-17T21:04:45.959Z,17.81
2022-10-17T21:07:16.944Z,17.76
2022-10-17T21:09:46.370Z,17.66
2022-10-17T21:12:21.754Z,17.67
2022-10-17T21:15:01.046Z,17.61
2022-10-17T21:17:29.542Z,17.65
2022-10-17T21:19:57.721Z,17.67
2022-10-17T21:22:26.752Z,17.65
2022-10-17T21:24:55.236Z,17.50
2022-10-17T21:27:23.695Z,17.55
2022-10-17T21:29:52.222Z,17.63
2022-10-17T21:32:39.464Z,17.69
2022-10-17T21:35:10.827Z,17.64
2022-10-17T21:37:39.327Z,17.55
2022-10-17T21:40:09.058Z,17.54
2022-10-17T21:42:37.504Z,17.55
2022-10-17T21:45:15.377Z,17.45
2022-10-17T21:48:11.294Z,17.49
2022-10-17T21:50:33.825Z,17.51
2022-10-17T21:53:02.265Z,17.49
2022-10-17T21:55:30.712Z,17.40
2022-10-17T21:57:58.864Z,17.46
2022-10-17T22:00:27.446Z,17.38
2022-10-17T22:02:57.017Z,17.26
2022-10-17T22:05:25.250Z,17.23
2022-10-17T22:07:53.716Z,17.34
2022-10-17T22:10:21.940Z,17.38
2022-10-17T22:12:50.894Z,17.30
2022-10-17T22:15:19.184Z,17.27
2022-10-17T22:17:47.749Z,17.21
2022-10-17T22:20:17.591Z,17.14
2022-10-17T22:22:45.753Z,17.18
2022-10-17T22:25:14.523Z,17.00
2022-10-17T22:27:42.859Z,17.05
2022-10-17T22:30:13.190Z,16.92
2022-10-17T22:32:43.387Z,16.90
2022-10-17T22:35:11.757Z,16.87
2022-10-17T22:37:41.608Z,16.92
2022-10-17T22:40:10.121Z,16.86
2022-10-17T22:42:38.315Z,16.93
2022-10-17T22:45:07.192Z,16.93
2022-10-17T22:47:35.466Z,16.96
2022-10-17T22:50:04.201Z,16.78
2022-10-17T22:52:33.638Z,16.82
2022-10-17T22:55:04.647Z,16.73
2022-10-17T22:57:33.327Z,16.78
2022-10-17T23:00:01.994Z,16.68
2022-10-17T23:02:30.800Z,16.79
2022-10-17T23:04:59.259Z,16.82
2022-10-17T23:07:27.840Z,16.87
2022-10-17T23:09:56.386Z,16.84
2022-10-17T23:12:26.288Z,16.83
2022-10-17T23:14:55.413Z,16.97
2022-10-17T23:17:23.584Z,16.99
2022-10-17T23:19:54.222Z,16.91
2022-10-17T23:22:25.515Z,16.86
2022-10-17T23:24:53.724Z,16.70
2022-10-17T23:27:22.504Z,16.73
2022-10-17T23:29:52.705Z,16.70
2022-10-17T23:32:22.002Z,16.85
2022-10-17T23:34:50.512Z,16.81
2022-10-17T23:37:19.359Z,16.71
2022-10-17T23:39:47.898Z,16.84
2022-10-17T23:42:16.083Z,16.71
2022-10-17T23:44:44.621Z,16.68
2022-10-17T23:47:14.696Z,16.77
2022-10-17T23:49:43.186Z,16.84
2022-10-17T23:52:11.942Z,16.86
2022-10-17T23:57:13.449Z,16.83
2022-10-17T23:59:41.592Z,16.83
